Time;durP1;ratioP1;P1;durP2;ratioP2;P2;SDS_P1;SDS_P2;PMS_P1;PMS_P2;Temp;Humidity;BMP_temperature;BMP_pressure;BME280_temperature;BME280_humidity;BME280_pressure;Samples;Min_cycle;Max_cycle;Signal;HPM_P1;HPM_P2
2022/08/14 00:00:43;;;;;;;;;7.00;7.00;;;;;;;;5119308;27;45429;-80
2022/08/14 00:03:16;;;;;;;;;7.00;7.00;;;;;;;;5119269;27;47518;-80
2022/08/14 00:05:41;;;;;;;;;8.33;7.00;;;;;;;;5119469;27;45321;-80
2022/08/14 00:08:07;;;;;;;;;7.00;7.00;;;;;;;;5119182;27;45219;-80
2022/08/14 00:10:32;;;;;;;;;6.00;5.67;;;;;;;;5119467;27;45539;-80
2022/08/14 00:12:57;;;;;;;;;9.00;8.67;;;;;;;;5119097;27;45442;-80
2022/08/14 00:15:28;;;;;;;;;9.00;9.00;;;;;;;;5119020;27;45413;-80
2022/08/14 00:17:54;;;;;;;;;9.67;7.00;;;;;;;;5119439;27;45765;-80
2022/08/14 00:20:30;;;;;;;;;1.33;1.33;;;;;;;;5119337;27;45285;-80
2022/08/14 00:22:56;;;;;;;;;10.67;10.67;;;;;;;;5118868;27;47346;-79
2022/08/14 00:25:21;;;;;;;;;4.33;4.33;;;;;;;;5119147;27;45446;-80
2022/08/14 00:27:47;;;;;;;;;7.00;7.00;;;;;;;;5119254;27;45440;-80
2022/08/14 00:30:13;;;;;;;;;6.33;6.33;;;;;;;;5119469;27;45202;-80
2022/08/14 00:32:38;;;;;;;;;10.67;9.67;;;;;;;;5118887;27;45542;-80
2022/08/14 00:35:04;;;;;;;;;9.00;9.00;;;;;;;;5118741;27;45429;-80
2022/08/14 00:37:30;;;;;;;;;15.67;15.67;;;;;;;;5119123;27;45298;-80
2022/08/14 00:39:55;;;;;;;;;8.00;8.00;;;;;;;;5119125;27;45204;-80
2022/08/14 00:42:21;;;;;;;;;10.67;7.67;;;;;;;;5118925;27;45335;-80
2022/08/14 00:44:47;;;;;;;;;7.00;7.00;;;;;;;;5100345;27;45601;-79
2022/08/14 00:47:13;;;;;;;;;12.33;8.33;;;;;;;;5118505;27;45408;-80
2022/08/14 00:49:38;;;;;;;;;8.67;8.67;;;;;;;;5119071;27;45337;-80
2022/08/14 00:52:04;;;;;;;;;9.00;8.67;;;;;;;;5118429;27;46228;-80
2022/08/14 00:54:29;;;;;;;;;9.33;9.33;;;;;;;;5118694;27;45318;-80
2022/08/14 00:56:55;;;;;;;;;9.00;8.00;;;;;;;;5118736;27;45329;-80
2022/08/14 00:59:21;;;;;;;;;7.00;7.00;;;;;;;;5118913;27;45394;-80
2022/08/14 01:01:47;;;;;;;;;7.67;7.67;;;;;;;;5118562;27;45630;-80
2022/08/14 01:04:12;;;;;;;;;9.00;9.00;;;;;;;;5118346;27;45230;-80
2022/08/14 01:06:38;;;;;;;;;8.00;8.00;;;;;;;;5118469;27;45491;-80
2022/08/14 01:09:03;;;;;;;;;7.00;7.00;;;;;;;;5118813;27;45541;-80
2022/08/14 01:11:29;;;;;;;;;8.67;7.67;;;;;;;;5119164;27;45480;-80
2022/08/14 01:13:58;;;;;;;;;7.33;7.33;;;;;;;;5122187;27;45449;-80
2022/08/14 01:16:23;;;;;;;;;8.67;7.00;;;;;;;;5122145;27;45307;-80
2022/08/14 01:21:34;;;;;;;;;11.00;9.67;;;;;;;;5121922;27;45438;-79
2022/08/14 01:24:00;;;;;;;;;8.67;8.00;;;;;;;;5121741;27;45375;-80
2022/08/14 01:26:27;;;;;;;;;10.33;9.00;;;;;;;;5121900;27;45363;-79
2022/08/14 01:28:54;;;;;;;;;8.33;6.67;;;;;;;;5122292;27;45373;-81
2022/08/14 01:31:20;;;;;;;;;5.00;5.00;;;;;;;;5121727;27;46305;-80
2022/08/14 01:33:47;;;;;;;;;9.00;9.00;;;;;;;;5121560;27;46064;-78
2022/08/14 01:36:15;;;;;;;;;8.00;8.00;;;;;;;;5122002;27;45438;-78
2022/08/14 01:38:41;;;;;;;;;11.00;9.00;;;;;;;;5121729;27;45295;-80
2022/08/14 01:41:07;;;;;;;;;8.00;8.00;;;;;;;;5121752;27;46484;-80
2022/08/14 01:43:41;;;;;;;;;9.33;9.33;;;;;;;;5121561;27;45286;-80
2022/08/14 01:46:10;;;;;;;;;8.00;8.00;;;;;;;;5121483;27;45404;-80
2022/08/14 01:48:35;;;;;;;;;9.00;7.67;;;;;;;;5121669;27;45320;-80
2022/08/14 01:51:01;;;;;;;;;10.00;8.33;;;;;;;;5121352;27;45392;-80
2022/08/14 01:53:27;;;;;;;;;11.67;8.67;;;;;;;;5121510;27;45177;-80
2022/08/14 01:55:56;;;;;;;;;8.00;8.00;;;;;;;;5121601;27;45330;-80
2022/08/14 01:58:22;;;;;;;;;9.33;9.33;;;;;;;;5121571;27;45165;-80
2022/08/14 02:00:53;;;;;;;;;9.00;9.00;;;;;;;;5121162;27;46180;-80
2022/08/14 02:03:18;;;;;;;;;10.00;10.00;;;;;;;;5121226;27;45339;-80
2022/08/14 02:05:43;;;;;;;;;11.00;9.67;;;;;;;;5121049;27;45447;-80
2022/08/14 02:08:08;;;;;;;;;11.00;11.00;;;;;;;;5121242;27;45573;-80
2022/08/14 02:10:34;;;;;;;;;10.00;10.00;;;;;;;;5121074;27;46480;-80
2022/08/14 02:13:06;;;;;;;;;10.67;8.00;;;;;;;;5121190;27;45408;-80
2022/08/14 02:15:32;;;;;;;;;9.00;9.00;;;;;;;;5121186;27;45381;-80
2022/08/14 02:18:00;;;;;;;;;7.33;7.33;;;;;;;;5121210;27;45498;-80
2022/08/14 02:20:25;;;;;;;;;10.33;9.67;;;;;;;;5121108;27;46647;-80
2022/08/14 02:22:52;;;;;;;;;9.33;9.33;;;;;;;;5119566;27;45318;-80
2022/08/14 02:25:18;;;;;;;;;10.00;10.00;;;;;;;;5120948;27;45240;-80
2022/08/14 02:27:44;;;;;;;;;7.33;7.33;;;;;;;;5121079;27;45508;-80
2022/08/14 02:30:10;;;;;;;;;8.00;8.00;;;;;;;;5120800;27;46995;-80
2022/08/14 02:32:36;;;;;;;;;10.33;9.33;;;;;;;;5120620;27;45154;-80
2022/08/14 02:35:05;;;;;;;;;8.33;8.33;;;;;;;;5120794;27;45218;-80
2022/08/14 02:37:31;;;;;;;;;9.67;8.33;;;;;;;;5120955;27;45292;-80
2022/08/14 02:39:56;;;;;;;;;9.00;9.00;;;;;;;;5120602;27;45330;-80
2022/08/14 02:42:23;;;;;;;;;11.00;9.67;;;;;;;;5120710;27;45315;-80
2022/08/14 02:44:48;;;;;;;;;8.33;8.33;;;;;;;;5120684;27;45344;-80
2022/08/14 02:47:14;;;;;;;;;8.33;8.33;;;;;;;;5120876;27;45229;-80
2022/08/14 02:49:40;;;;;;;;;11.00;11.00;;;;;;;;5120371;27;46246;-80
2022/08/14 02:52:06;;;;;;;;;10.33;9.00;;;;;;;;5120769;27;45330;-80
2022/08/14 02:54:33;;;;;;;;;8.33;8.33;;;;;;;;5120727;27;45230;-81
2022/08/14 02:56:58;;;;;;;;;10.67;10.67;;;;;;;;5120697;27;45379;-80
2022/08/14 02:59:27;;;;;;;;;9.00;9.00;;;;;;;;5120365;27;45399;-80
2022/08/14 03:01:52;;;;;;;;;9.33;9.33;;;;;;;;5120439;27;45371;-80
2022/08/14 03:04:18;;;;;;;;;11.33;11.33;;;;;;;;5120343;27;45351;-80
2022/08/14 03:06:45;;;;;;;;;12.00;12.00;;;;;;;;5120288;27;45217;-80
2022/08/14 03:09:10;;;;;;;;;14.00;11.67;;;;;;;;5120238;27;46205;-80
2022/08/14 03:11:36;;;;;;;;;12.67;12.00;;;;;;;;5120250;27;45339;-80
2022/08/14 03:14:01;;;;;;;;;13.00;12.67;;;;;;;;5120373;27;45457;-80
2022/08/14 03:16:32;;;;;;;;;14.00;11.00;;;;;;;;5120422;27;45493;-80
2022/08/14 03:18:59;;;;;;;;;12.00;12.00;;;;;;;;5119444;27;46161;-80
2022/08/14 03:21:24;;;;;;;;;14.00;12.33;;;;;;;;5119809;27;45536;-80
2022/08/14 03:23:51;;;;;;;;;13.67;13.67;;;;;;;;5120133;27;45292;-80
2022/08/14 03:26:18;;;;;;;;;14.33;12.33;;;;;;;;5120245;27;45256;-80
2022/08/14 03:28:48;;;;;;;;;10.00;10.00;;;;;;;;5119776;27;46662;-80
2022/08/14 03:31:13;;;;;;;;;13.00;13.00;;;;;;;;5119931;27;45220;-79
2022/08/14 03:33:39;;;;;;;;;14.00;14.00;;;;;;;;5119740;27;45283;-80
2022/08/14 03:36:15;;;;;;;;;13.00;12.00;;;;;;;;5119613;27;45444;-80
2022/08/14 03:38:41;;;;;;;;;17.33;16.00;;;;;;;;5119535;27;46455;-80
2022/08/14 03:41:13;;;;;;;;;25.33;24.00;;;;;;;;5119215;27;45181;-80
2022/08/14 03:43:39;;;;;;;;;13.33;10.67;;;;;;;;5119786;27;45201;-80
2022/08/14 03:46:05;;;;;;;;;16.00;16.00;;;;;;;;5119907;27;45474;-80
2022/08/14 03:48:30;;;;;;;;;14.33;14.33;;;;;;;;5119412;27;45533;-80
2022/08/14 03:50:55;;;;;;;;;13.33;13.33;;;;;;;;5119436;27;45310;-80
2022/08/14 03:53:21;;;;;;;;;13.33;13.00;;;;;;;;5119713;27;45314;-80
2022/08/14 03:55:46;;;;;;;;;18.00;14.33;;;;;;;;5119786;27;45386;-80
2022/08/14 03:58:12;;;;;;;;;12.00;11.67;;;;;;;;5119703;27;46599;-80
2022/08/14 04:00:38;;;;;;;;;17.00;14.00;;;;;;;;5119405;27;45547;-80
2022/08/14 04:03:05;;;;;;;;;13.33;11.67;;;;;;;;5119602;27;45306;-80
2022/08/14 04:05:31;;;;;;;;;16.00;14.00;;;;;;;;5119389;27;45465;-80
2022/08/14 04:07:57;;;;;;;;;18.00;16.00;;;;;;;;5118771;27;45452;-80
2022/08/14 04:10:22;;;;;;;;;15.67;14.00;;;;;;;;5119350;27;45421;-80
2022/08/14 04:12:47;;;;;;;;;14.67;14.00;;;;;;;;5119393;27;45371;-80
2022/08/14 04:15:13;;;;;;;;;12.67;12.67;;;;;;;;5119495;27;45434;-80
2022/08/14 04:17:42;;;;;;;;;13.67;13.67;;;;;;;;5119084;27;47397;-80
2022/08/14 04:20:08;;;;;;;;;17.33;13.00;;;;;;;;5119002;27;45200;-80
2022/08/14 04:22:34;;;;;;;;;14.00;12.00;;;;;;;;5119266;27;45347;-80
2022/08/14 04:25:00;;;;;;;;;13.00;13.00;;;;;;;;5119116;27;45253;-80
2022/08/14 04:27:26;;;;;;;;;13.67;12.67;;;;;;;;5118940;27;46406;-80
2022/08/14 04:29:52;;;;;;;;;15.67;15.67;;;;;;;;5119036;27;45330;-80
2022/08/14 04:32:18;;;;;;;;;13.67;13.67;;;;;;;;5119136;27;45395;-80
2022/08/14 04:34:43;;;;;;;;;12.67;12.67;;;;;;;;5119072;27;45411;-80
2022/08/14 04:45:25;;;;;;;;;10.67;10.67;;;;;;;;5118858;27;45371;-81
2022/08/14 04:50:35;;;;;;;;;11.33;11.33;;;;;;;;5118634;27;45210;-80
2022/08/14 04:53:01;;;;;;;;;14.67;12.33;;;;;;;;5118696;27;45236;-81
2022/08/14 04:55:26;;;;;;;;;10.33;10.33;;;;;;;;5119206;27;45329;-81
2022/08/14 04:57:52;;;;;;;;;12.67;10.00;;;;;;;;5118559;27;46362;-81
2022/08/14 05:00:17;;;;;;;;;11.33;11.33;;;;;;;;5118654;27;45200;-81
2022/08/14 05:02:42;;;;;;;;;14.33;10.00;;;;;;;;5118847;27;45434;-80
2022/08/14 05:05:07;;;;;;;;;10.00;10.00;;;;;;;;5118672;27;45212;-81
2022/08/14 05:07:33;;;;;;;;;14.67;12.33;;;;;;;;5118309;27;45612;-81
2022/08/14 05:09:58;;;;;;;;;10.00;9.00;;;;;;;;5118405;27;45303;-80
2022/08/14 05:12:23;;;;;;;;;13.00;11.00;;;;;;;;5118490;27;45428;-80
2022/08/14 05:14:49;;;;;;;;;12.33;12.00;;;;;;;;5118834;27;45280;-80
2022/08/14 05:17:14;;;;;;;;;15.33;12.00;;;;;;;;5118326;27;45658;-80
2022/08/14 05:19:40;;;;;;;;;11.67;9.33;;;;;;;;5118523;27;45577;-80
2022/08/14 05:22:06;;;;;;;;;12.67;12.00;;;;;;;;5118453;27;45270;-80
2022/08/14 05:24:31;;;;;;;;;10.33;10.33;;;;;;;;5118403;27;45334;-80
2022/08/14 05:26:58;;;;;;;;;9.33;9.33;;;;;;;;5118206;27;45494;-80
2022/08/14 05:29:24;;;;;;;;;10.33;10.33;;;;;;;;5118246;27;45211;-80
2022/08/14 05:31:49;;;;;;;;;11.00;10.67;;;;;;;;5118269;27;45394;-80
2022/08/14 05:34:14;;;;;;;;;10.33;9.67;;;;;;;;5118428;27;45447;-80
2022/08/14 05:36:40;;;;;;;;;13.00;10.67;;;;;;;;5117790;27;45646;-79
2022/08/14 05:39:06;;;;;;;;;12.67;9.67;;;;;;;;5118093;27;45390;-79
2022/08/14 05:41:31;;;;;;;;;10.33;10.33;;;;;;;;5118179;27;45773;-80
2022/08/14 05:43:57;;;;;;;;;14.00;11.00;;;;;;;;5118318;27;45355;-81
2022/08/14 05:46:23;;;;;;;;;12.00;10.00;;;;;;;;5117918;27;46238;-80
2022/08/14 05:48:52;;;;;;;;;11.67;11.67;;;;;;;;5117829;27;45333;-80
2022/08/14 05:51:17;;;;;;;;;11.33;9.33;;;;;;;;5117983;27;45310;-80
2022/08/14 05:53:43;;;;;;;;;20.33;20.33;;;;;;;;5118112;27;45255;-80
2022/08/14 05:56:08;;;;;;;;;12.00;12.00;;;;;;;;5117867;27;45347;-80
2022/08/14 05:58:33;;;;;;;;;10.67;10.67;;;;;;;;5120257;27;45280;-80
2022/08/14 06:00:59;;;;;;;;;12.67;12.00;;;;;;;;5121462;27;45471;-80
2022/08/14 06:03:25;;;;;;;;;12.00;11.33;;;;;;;;5121865;27;45718;-80
2022/08/14 06:05:51;;;;;;;;;10.00;10.00;;;;;;;;5121118;27;45439;-79
2022/08/14 06:08:18;;;;;;;;;12.33;10.33;;;;;;;;5121097;27;45424;-80
2022/08/14 06:10:44;;;;;;;;;10.00;9.00;;;;;;;;5121318;27;45303;-80
2022/08/14 06:13:09;;;;;;;;;10.00;10.00;;;;;;;;5121246;27;45307;-79
2022/08/14 06:15:34;;;;;;;;;8.33;8.00;;;;;;;;5121126;27;46635;-78
2022/08/14 06:18:00;;;;;;;;;8.67;8.67;;;;;;;;5121149;27;45355;-80
2022/08/14 06:20:25;;;;;;;;;8.33;8.33;;;;;;;;5120978;27;45552;-80
2022/08/14 06:22:51;;;;;;;;;9.00;8.67;;;;;;;;5121325;27;45389;-80
2022/08/14 06:25:16;;;;;;;;;10.67;9.00;;;;;;;;5120772;27;46458;-80
2022/08/14 06:27:43;;;;;;;;;10.67;9.67;;;;;;;;5120901;27;45409;-80
2022/08/14 06:30:10;;;;;;;;;14.67;11.00;;;;;;;;5121003;27;45456;-80
2022/08/14 06:32:36;;;;;;;;;9.00;9.00;;;;;;;;5121203;27;45288;-80
2022/08/14 06:35:07;;;;;;;;;9.00;8.00;;;;;;;;5120298;27;46422;-80
2022/08/14 06:37:43;;;;;;;;;12.00;10.00;;;;;;;;5120853;27;45282;-79
2022/08/14 06:40:09;;;;;;;;;9.33;9.33;;;;;;;;5121063;27;45368;-80
2022/08/14 06:42:34;;;;;;;;;14.00;12.33;;;;;;;;5121006;27;45270;-79
2022/08/14 06:45:02;;;;;;;;;14.00;12.33;;;;;;;;5120553;27;46203;-80
2022/08/14 06:47:27;;;;;;;;;10.00;10.00;;;;;;;;5120561;27;45273;-81
2022/08/14 06:49:52;;;;;;;;;10.00;10.00;;;;;;;;5120619;27;45456;-81
2022/08/14 06:52:18;;;;;;;;;13.00;8.67;;;;;;;;5120791;27;45444;-81
2022/08/14 06:54:43;;;;;;;;;9.00;9.00;;;;;;;;5120674;27;46234;-81
2022/08/14 06:57:09;;;;;;;;;7.67;7.67;;;;;;;;5120377;27;45346;-82
2022/08/14 06:59:34;;;;;;;;;8.00;8.00;;;;;;;;5120650;27;45289;-80
2022/08/14 07:07:34;;;;;;;;;8.67;5.67;;;;;;;;5120001;27;45504;-79
2022/08/14 07:09:59;;;;;;;;;10.33;8.33;;;;;;;;5119463;27;45478;-80
2022/08/14 07:12:25;;;;;;;;;6.00;6.00;;;;;;;;5120430;27;45156;-80
2022/08/14 07:14:50;;;;;;;;;8.00;7.33;;;;;;;;5120161;27;45483;-81
2022/08/14 07:17:15;;;;;;;;;12.00;10.00;;;;;;;;5120317;27;45229;-80
2022/08/14 07:19:40;;;;;;;;;10.00;8.00;;;;;;;;5120203;27;45188;-80
2022/08/14 07:22:05;;;;;;;;;7.00;7.00;;;;;;;;5120380;27;45224;-80
2022/08/14 07:24:31;;;;;;;;;7.67;7.00;;;;;;;;5120001;27;45471;-80
2022/08/14 07:26:56;;;;;;;;;9.67;8.00;;;;;;;;5119417;27;45343;-79
2022/08/14 07:29:21;;;;;;;;;8.00;8.00;;;;;;;;5120232;27;45334;-79
2022/08/14 07:31:46;;;;;;;;;7.00;7.00;;;;;;;;5120206;27;45369;-79
2022/08/14 07:34:12;;;;;;;;;8.67;7.33;;;;;;;;5120150;27;45428;-80
2022/08/14 07:36:37;;;;;;;;;7.33;7.33;;;;;;;;5119714;27;45400;-80
2022/08/14 07:39:03;;;;;;;;;5.33;5.33;;;;;;;;5119941;27;45385;-80
2022/08/14 07:41:29;;;;;;;;;8.00;7.33;;;;;;;;5120248;27;45371;-80
2022/08/14 07:43:54;;;;;;;;;9.00;9.00;;;;;;;;5119501;27;45588;-80
2022/08/14 07:46:19;;;;;;;;;10.00;9.00;;;;;;;;5120004;27;45450;-80
2022/08/14 07:48:47;;;;;;;;;8.00;8.00;;;;;;;;5119715;27;45374;-80
2022/08/14 07:51:12;;;;;;;;;11.67;9.00;;;;;;;;5119754;27;45428;-80
2022/08/14 07:53:38;;;;;;;;;12.00;9.00;;;;;;;;5119544;27;45267;-81
2022/08/14 07:56:03;;;;;;;;;8.00;8.00;;;;;;;;5119607;27;45447;-80
2022/08/14 07:58:29;;;;;;;;;7.00;7.00;;;;;;;;5119820;27;45250;-79
2022/08/14 08:00:54;;;;;;;;;9.00;7.33;;;;;;;;5119659;27;45523;-79
2022/08/14 08:03:21;;;;;;;;;9.00;9.00;;;;;;;;5119292;27;47412;-80
2022/08/14 08:05:46;;;;;;;;;9.67;9.67;;;;;;;;5119344;27;45362;-79
2022/08/14 08:08:13;;;;;;;;;8.33;8.33;;;;;;;;5119105;27;45391;-79
2022/08/14 08:10:40;;;;;;;;;9.00;9.00;;;;;;;;5119781;27;45311;-80
2022/08/14 08:13:09;;;;;;;;;9.00;9.00;;;;;;;;5119011;27;47014;-80
2022/08/14 08:15:58;;;;;;;;;10.00;10.00;;;;;;;;5119299;27;45224;-81
2022/08/14 08:18:23;;;;;;;;;10.00;10.00;;;;;;;;5100690;27;45275;-78
2022/08/14 08:20:50;;;;;;;;;8.33;8.33;;;;;;;;5119282;27;45462;-80
2022/08/14 08:23:16;;;;;;;;;12.67;10.67;;;;;;;;5118991;27;46635;-80
2022/08/14 08:25:43;;;;;;;;;10.67;10.00;;;;;;;;5118913;27;45348;-80
2022/08/14 08:28:11;;;;;;;;;10.33;9.33;;;;;;;;5119323;27;45375;-81
2022/08/14 08:30:37;;;;;;;;;10.00;10.00;;;;;;;;5119266;27;45223;-78
2022/08/14 08:33:04;;;;;;;;;7.00;7.00;;;;;;;;5119012;27;45397;-80
2022/08/14 08:35:30;;;;;;;;;9.00;9.00;;;;;;;;5118886;27;45377;-75
2022/08/14 08:38:03;;;;;;;;;8.00;8.00;;;;;;;;5118972;27;45367;-79
2022/08/14 08:40:34;;;;;;;;;7.67;7.67;;;;;;;;5119115;27;45548;-77
2022/08/14 08:42:59;;;;;;;;;9.00;8.67;;;;;;;;5118524;27;46946;-77
2022/08/14 08:45:25;;;;;;;;;8.33;8.33;;;;;;;;5118707;27;45261;-78
2022/08/14 08:47:50;;;;;;;;;7.67;7.67;;;;;;;;5118990;27;45412;-78
2022/08/14 08:50:18;;;;;;;;;7.00;7.00;;;;;;;;5118936;27;45360;-78
2022/08/14 08:52:50;;;;;;;;;9.00;8.00;;;;;;;;5118627;27;46628;-77
2022/08/14 08:55:22;;;;;;;;;9.00;7.00;;;;;;;;5118931;27;45359;-79
2022/08/14 08:57:52;;;;;;;;;12.00;9.00;;;;;;;;5118790;27;45387;-79
2022/08/14 09:00:17;;;;;;;;;7.00;7.00;;;;;;;;5118850;27;45405;-78
2022/08/14 09:03:02;;;;;;;;;10.00;9.00;;;;;;;;5118487;27;45423;-78
2022/08/14 09:05:28;;;;;;;;;7.67;7.67;;;;;;;;5118804;27;45225;-78
2022/08/14 09:07:53;;;;;;;;;10.00;9.33;;;;;;;;5118157;27;45463;-78
2022/08/14 09:10:18;;;;;;;;;10.00;8.67;;;;;;;;5118841;27;45474;-79
2022/08/14 09:12:44;;;;;;;;;8.00;8.00;;;;;;;;5118122;27;47145;-78
2022/08/14 09:15:10;;;;;;;;;7.33;7.33;;;;;;;;5118365;27;45441;-77
2022/08/14 09:17:35;;;;;;;;;7.33;7.33;;;;;;;;5118535;27;45511;-78
2022/08/14 09:20:01;;;;;;;;;7.00;5.00;;;;;;;;5118622;27;45272;-77
2022/08/14 09:22:26;;;;;;;;;7.67;7.67;;;;;;;;5118440;27;46494;-77
2022/08/14 09:24:52;;;;;;;;;10.67;10.67;;;;;;;;5118139;27;45485;-76
2022/08/14 09:27:17;;;;;;;;;10.00;9.67;;;;;;;;5118536;27;45387;-78
2022/08/14 09:29:42;;;;;;;;;10.33;9.00;;;;;;;;5118616;27;45293;-80
2022/08/14 09:32:10;;;;;;;;;6.33;6.33;;;;;;;;5118431;27;46228;-75
2022/08/14 09:34:59;;;;;;;;;10.00;8.33;;;;;;;;5122125;27;45414;-79
2022/08/14 09:37:33;;;;;;;;;7.67;7.00;;;;;;;;5058137;28;45523;-79
2022/08/14 09:40:07;;;;;;;;;8.00;8.00;;;;;;;;5058723;28;45246;-81
2022/08/14 09:42:35;;;;;;;;;9.33;7.67;;;;;;;;5058120;28;45301;-83
2022/08/14 09:45:01;;;;;;;;;7.00;7.00;;;;;;;;5057956;28;45393;-82
2022/08/14 09:47:45;;;;;;;;;7.67;7.67;;;;;;;;5057976;28;45325;-85
2022/08/14 09:50:22;;;;;;;;;9.33;9.33;;;;;;;;5058271;28;45425;-80
2022/08/14 09:52:57;;;;;;;;;8.00;8.00;;;;;;;;5057834;28;45613;-81
2022/08/14 09:55:24;;;;;;;;;6.67;6.67;;;;;;;;5057797;28;45366;-81
2022/08/14 09:57:50;;;;;;;;;8.33;8.00;;;;;;;;5058068;28;45366;-81
2022/08/14 10:00:17;;;;;;;;;6.67;6.67;;;;;;;;5057893;28;45392;-86
2022/08/14 10:02:52;;;;;;;;;6.33;6.33;;;;;;;;5057870;28;48346;-85
2022/08/14 10:05:32;;;;;;;;;8.33;8.33;;;;;;;;5057947;28;45425;-73
2022/08/14 10:07:58;;;;;;;;;8.00;8.00;;;;;;;;5057383;28;45441;-82
2022/08/14 10:10:33;;;;;;;;;10.00;10.00;;;;;;;;5057746;28;45384;-75
2022/08/14 10:13:00;;;;;;;;;6.75;6.75;;;;;;;;5057858;28;46419;-81
2022/08/14 10:15:26;;;;;;;;;7.75;7.25;;;;;;;;5115457;27;45346;-80
2022/08/14 10:18:06;;;;;;;;;6.00;6.00;;;;;;;;5121156;27;45229;-83
2022/08/14 10:20:35;;;;;;;;;8.00;6.00;;;;;;;;5121189;27;45423;-77
2022/08/14 10:23:14;;;;;;;;;6.25;6.00;;;;;;;;5120724;27;46178;-75
2022/08/14 10:25:43;;;;;;;;;8.25;6.50;;;;;;;;5120345;27;45406;-74
2022/08/14 10:28:09;;;;;;;;;6.75;6.25;;;;;;;;5120836;27;45367;-73
2022/08/14 10:30:36;;;;;;;;;5.75;5.75;;;;;;;;5121266;27;45455;-73
2022/08/14 10:33:01;;;;;;;;;4.75;4.75;;;;;;;;5120435;27;45359;-72
2022/08/14 10:35:37;;;;;;;;;5.25;5.25;;;;;;;;5120520;27;45328;-73
2022/08/14 10:38:03;;;;;;;;;4.75;4.75;;;;;;;;5120846;27;45300;-75
2022/08/14 10:40:30;;;;;;;;;5.50;4.75;;;;;;;;5121068;27;45425;-75
2022/08/14 10:42:55;;;;;;;;;6.00;6.00;;;;;;;;5120606;27;46593;-75
2022/08/14 10:45:22;;;;;;;;;4.75;4.75;;;;;;;;5118891;27;45323;-74
2022/08/14 10:47:51;;;;;;;;;5.00;5.00;;;;;;;;5120569;27;45310;-76
2022/08/14 10:50:27;;;;;;;;;3.25;3.25;;;;;;;;5120979;27;45219;-75
2022/08/14 10:52:55;;;;;;;;;5.50;5.50;;;;;;;;5120248;27;46389;-72
2022/08/14 10:55:21;;;;;;;;;4.25;4.25;;;;;;;;5120465;27;45432;-71
2022/08/14 10:57:48;;;;;;;;;5.00;5.00;;;;;;;;5120537;27;45349;-71
2022/08/14 11:00:15;;;;;;;;;7.75;7.75;;;;;;;;5120702;27;45486;-72
2022/08/14 11:02:40;;;;;;;;;4.00;4.00;;;;;;;;5119990;27;46521;-73
2022/08/14 11:05:13;;;;;;;;;5.75;5.75;;;;;;;;5120387;27;45229;-73
2022/08/14 11:07:52;;;;;;;;;5.25;4.00;;;;;;;;5119920;27;45374;-73
2022/08/14 11:10:18;;;;;;;;;6.25;6.25;;;;;;;;5120455;27;45210;-72
2022/08/14 11:12:46;;;;;;;;;6.50;6.00;;;;;;;;5119984;27;46731;-73
2022/08/14 11:15:13;;;;;;;;;4.75;4.75;;;;;;;;5120113;27;45365;-73
2022/08/14 11:17:38;;;;;;;;;5.25;5.25;;;;;;;;5120274;27;45335;-71
2022/08/14 11:20:05;;;;;;;;;7.75;5.00;;;;;;;;5120502;27;45370;-74
2022/08/14 11:22:31;;;;;;;;;6.00;6.00;;;;;;;;5120005;27;46421;-72
2022/08/14 11:25:03;;;;;;;;;8.25;6.00;;;;;;;;5119668;27;45358;-71
2022/08/14 11:27:30;;;;;;;;;6.00;6.00;;;;;;;;5119948;27;45347;-72
2022/08/14 11:29:59;;;;;;;;;6.25;6.25;;;;;;;;5120264;27;45394;-73
2022/08/14 11:32:24;;;;;;;;;6.00;6.00;;;;;;;;5119781;27;46765;-73
2022/08/14 11:34:51;;;;;;;;;6.75;6.75;;;;;;;;5119879;27;45380;-73
2022/08/14 11:37:16;;;;;;;;;9.50;8.00;;;;;;;;5119801;27;45404;-74
2022/08/14 11:39:42;;;;;;;;;5.50;5.50;;;;;;;;5120150;27;45373;-72
2022/08/14 11:42:18;;;;;;;;;8.00;7.50;;;;;;;;5119671;27;45987;-74
2022/08/14 11:44:43;;;;;;;;;5.00;5.00;;;;;;;;5119691;27;45585;-75
2022/08/14 11:47:17;;;;;;;;;5.00;5.00;;;;;;;;5119752;27;45330;-73
2022/08/14 11:49:42;;;;;;;;;6.50;5.00;;;;;;;;5119856;27;45575;-73
2022/08/14 11:52:07;;;;;;;;;5.67;5.67;;;;;;;;5119108;27;46403;-76
2022/08/14 11:54:34;;;;;;;;;5.00;5.00;;;;;;;;5119423;27;45419;-74
2022/08/14 11:56:59;;;;;;;;;5.67;5.67;;;;;;;;5119112;27;45682;-73
2022/08/14 11:59:24;;;;;;;;;7.00;6.00;;;;;;;;5119694;27;45353;-75
2022/08/14 12:01:50;;;;;;;;;6.00;6.00;;;;;;;;5119284;27;45504;-75
2022/08/14 12:04:17;;;;;;;;;4.00;4.00;;;;;;;;5119234;27;45442;-76
2022/08/14 12:06:47;;;;;;;;;4.67;4.67;;;;;;;;5119356;27;45467;-75
2022/08/14 12:09:12;;;;;;;;;5.00;4.67;;;;;;;;5119363;27;45470;-74
2022/08/14 12:11:38;;;;;;;;;5.00;5.00;;;;;;;;5119028;27;46248;-77
2022/08/14 12:14:07;;;;;;;;;5.00;5.00;;;;;;;;5119165;27;45508;-75
2022/08/14 12:16:34;;;;;;;;;5.33;5.33;;;;;;;;5119410;27;45361;-76
2022/08/14 12:19:00;;;;;;;;;3.67;3.67;;;;;;;;5119393;27;45307;-76
2022/08/14 12:21:26;;;;;;;;;7.33;5.33;;;;;;;;5118923;27;45364;-74
2022/08/14 12:24:08;;;;;;;;;5.33;5.33;;;;;;;;5118883;27;45342;-75
2022/08/14 12:26:35;;;;;;;;;6.00;5.00;;;;;;;;5119107;27;45247;-75
2022/08/14 12:29:07;;;;;;;;;4.00;4.00;;;;;;;;5119448;27;45314;-75
2022/08/14 12:31:32;;;;;;;;;5.67;5.67;;;;;;;;5118710;27;46284;-75
2022/08/14 12:33:59;;;;;;;;;5.00;5.00;;;;;;;;5119035;27;45414;-76
2022/08/14 12:36:29;;;;;;;;;4.33;4.33;;;;;;;;5118986;27;45328;-76
2022/08/14 12:38:55;;;;;;;;;4.67;4.67;;;;;;;;5118878;27;45458;-75
2022/08/14 12:41:21;;;;;;;;;6.00;4.00;;;;;;;;5118664;27;46236;-75
2022/08/14 12:44:06;;;;;;;;;5.00;4.33;;;;;;;;5118783;27;45378;-75
2022/08/14 12:46:41;;;;;;;;;7.00;6.67;;;;;;;;5118834;27;45337;-74
2022/08/14 12:49:10;;;;;;;;;4.33;3.00;;;;;;;;5118882;27;46010;-74
2022/08/14 12:51:35;;;;;;;;;5.67;5.67;;;;;;;;5118739;27;46270;-75
2022/08/14 12:54:11;;;;;;;;;4.00;4.00;;;;;;;;5118533;27;45295;-74
2022/08/14 12:56:36;;;;;;;;;4.67;4.67;;;;;;;;5118820;27;45350;-73
2022/08/14 12:59:03;;;;;;;;;5.33;5.33;;;;;;;;5119044;27;45421;-74
2022/08/14 13:01:30;;;;;;;;;5.33;5.33;;;;;;;;5118480;27;45354;-75
2022/08/14 13:04:16;;;;;;;;;6.67;5.00;;;;;;;;5118492;27;45168;-75
2022/08/14 13:06:43;;;;;;;;;5.00;5.00;;;;;;;;5117845;27;45369;-75
2022/08/14 13:09:09;;;;;;;;;5.33;5.33;;;;;;;;5122017;27;45174;-74
2022/08/14 13:11:45;;;;;;;;;4.67;4.67;;;;;;;;5121941;27;46652;-74
2022/08/14 13:14:14;;;;;;;;;4.33;4.33;;;;;;;;5122148;27;45528;-75
2022/08/14 13:16:40;;;;;;;;;6.00;4.67;;;;;;;;5103578;27;45297;-75
2022/08/14 13:19:09;;;;;;;;;6.00;6.00;;;;;;;;5122228;27;45396;-75
2022/08/14 13:21:35;;;;;;;;;5.67;5.33;;;;;;;;5122086;27;45318;-75
2022/08/14 13:24:01;;;;;;;;;7.00;6.00;;;;;;;;5121311;27;45401;-75
2022/08/14 13:26:27;;;;;;;;;5.67;4.67;;;;;;;;5122031;27;45428;-74
2022/08/14 13:28:52;;;;;;;;;6.00;6.00;;;;;;;;5122249;27;45267;-74
2022/08/14 13:31:21;;;;;;;;;5.33;5.33;;;;;;;;5121660;27;45595;-75
2022/08/14 13:33:46;;;;;;;;;5.00;5.00;;;;;;;;5122079;27;45363;-75
2022/08/14 13:36:12;;;;;;;;;4.33;4.33;;;;;;;;5121744;27;45298;-75
2022/08/14 13:38:38;;;;;;;;;6.00;6.00;;;;;;;;5122046;27;45486;-74
2022/08/14 13:41:04;;;;;;;;;4.00;4.00;;;;;;;;5121635;27;46600;-74
2022/08/14 13:43:30;;;;;;;;;5.33;5.33;;;;;;;;5121626;27;45439;-74
2022/08/14 13:45:55;;;;;;;;;6.67;5.00;;;;;;;;5121738;27;45322;-74
2022/08/14 13:48:21;;;;;;;;;6.00;6.00;;;;;;;;5121783;27;45474;-74
2022/08/14 13:50:51;;;;;;;;;5.00;5.00;;;;;;;;5121461;27;46441;-74
2022/08/14 13:53:18;;;;;;;;;5.67;5.67;;;;;;;;5121561;27;45380;-74
2022/08/14 13:55:45;;;;;;;;;6.33;6.33;;;;;;;;5121565;27;45216;-74
2022/08/14 13:58:13;;;;;;;;;4.67;4.67;;;;;;;;5121622;27;45299;-74
2022/08/14 14:00:39;;;;;;;;;7.00;6.67;;;;;;;;5121264;27;45684;-74
2022/08/14 14:03:05;;;;;;;;;4.67;4.67;;;;;;;;5121317;27;45473;-74
2022/08/14 14:05:34;;;;;;;;;5.33;5.33;;;;;;;;5121386;27;45129;-73
2022/08/14 14:07:59;;;;;;;;;6.00;5.00;;;;;;;;5121293;27;45450;-74
2022/08/14 14:10:25;;;;;;;;;4.67;4.67;;;;;;;;5121275;27;45483;-74
2022/08/14 14:12:51;;;;;;;;;4.67;4.67;;;;;;;;5121253;27;45347;-73
2022/08/14 14:15:18;;;;;;;;;5.00;5.00;;;;;;;;5121349;27;45516;-74
2022/08/14 14:17:45;;;;;;;;;7.00;7.00;;;;;;;;5102760;27;45514;-75
2022/08/14 14:20:11;;;;;;;;;5.67;5.67;;;;;;;;5102219;27;47678;-74
2022/08/14 14:22:40;;;;;;;;;5.67;5.67;;;;;;;;5120891;27;45239;-74
2022/08/14 14:25:06;;;;;;;;;7.00;7.00;;;;;;;;5120994;27;45413;-72
2022/08/14 14:27:32;;;;;;;;;12.50;12.50;;;;;;;;5121006;27;45369;-75
2022/08/14 14:29:58;;;;;;;;;6.67;6.67;;;;;;;;5120838;27;46420;-76
2022/08/14 14:32:28;;;;;;;;;5.00;5.00;;;;;;;;5120845;27;45377;-76
2022/08/14 14:34:54;;;;;;;;;10.00;9.33;;;;;;;;5121004;27;45441;-72
2022/08/14 14:37:19;;;;;;;;;13.33;12.00;;;;;;;;5120836;27;45309;-72
2022/08/14 14:39:47;;;;;;;;;44.00;38.00;;;;;;;;5120512;27;45468;-72
2022/08/14 14:42:12;;;;;;;;;35.25;31.75;;;;;;;;5120707;27;45417;-73
2022/08/14 14:44:41;;;;;;;;;34.50;25.50;;;;;;;;5120705;27;45329;-75
2022/08/14 14:47:12;;;;;;;;;13.25;13.00;;;;;;;;5120742;27;45461;-77
2022/08/14 14:49:38;;;;;;;;;6.67;6.67;;;;;;;;5120528;27;45484;-75
2022/08/14 14:52:04;;;;;;;;;8.00;7.33;;;;;;;;5120454;27;45480;-75
2022/08/14 14:54:31;;;;;;;;;6.00;6.00;;;;;;;;5120757;27;45386;-76